Time;durP1;ratioP1;P1;durP2;ratioP2;P2;SDS_P1;SDS_P2;PMS_P1;PMS_P2;Temp;Humidity;BMP_temperature;BMP_pressure;BME280_temperature;BME280_humidity;BME280_pressure;Samples;Min_cycle;Max_cycle;Signal;HPM_P1;HPM_P2
2021/11/19 00:00:19;;;;;;;40.95;28.85;;;;;;;0.33;100.00;97402.22;1032246;28;20033;-50
2021/11/19 00:00:53;;;;;;;51.95;30.50;;;;;;;0.24;100.00;97385.97;1036342;28;20048;-52
2021/11/19 00:01:28;;;;;;;54.90;33.08;;;;;;;0.34;100.00;97408.25;1035996;28;20018;-50
2021/11/19 00:02:00;;;;;;;50.22;33.20;;;;;;;0.32;100.00;97410.84;1033121;28;20274;-50
2021/11/19 00:02:31;;;;;;;50.00;31.60;;;;;;;0.30;100.00;97406.53;1036122;28;20340;-50
2021/11/19 00:03:02;;;;;;;53.72;33.40;;;;;;;0.28;100.00;97413.44;1036895;28;20265;-51
2021/11/19 00:03:33;;;;;;;53.08;32.75;;;;;;;0.27;100.00;97420.31;1036851;28;20252;-51
2021/11/19 00:04:03;;;;;;;48.53;32.00;;;;;;;0.24;100.00;97419.47;1036150;28;20121;-49
2021/11/19 00:04:34;;;;;;;46.15;30.17;;;;;;;0.21;100.00;97420.34;1036138;28;20121;-50
2021/11/19 00:05:06;;;;;;;43.90;29.08;;;;;;;0.20;100.00;97410.91;1032053;28;20504;-49
2021/11/19 00:05:37;;;;;;;52.58;32.47;;;;;;;0.17;100.00;97419.50;1031884;28;20670;-49
2021/11/19 00:06:07;;;;;;;50.65;32.67;;;;;;;0.17;100.00;97416.09;1032048;28;20344;-50
2021/11/19 00:06:39;;;;;;;40.33;27.63;;;;;;;0.15;100.00;97420.38;1028001;28;20073;-50
2021/11/19 00:07:10;;;;;;;43.55;29.95;;;;;;;0.13;100.00;97416.94;1028340;28;20460;-51
2021/11/19 00:07:40;;;;;;;40.05;28.52;;;;;;;0.13;100.00;97422.09;1032510;28;20265;-50
2021/11/19 00:08:11;;;;;;;46.63;30.55;;;;;;;0.13;100.00;97419.53;1036302;28;20057;-49
2021/11/19 00:08:42;;;;;;;50.45;31.98;;;;;;;0.09;100.00;97422.97;1040262;28;20017;-51
2021/11/19 00:09:12;;;;;;;50.10;31.23;;;;;;;0.09;100.00;97416.09;1036030;28;20018;-51
2021/11/19 00:09:43;;;;;;;46.88;30.63;;;;;;;0.09;100.00;97410.09;1032280;28;20022;-50
2021/11/19 00:10:14;;;;;;;51.10;32.55;;;;;;;0.09;100.00;97408.38;1036185;28;20018;-50
2021/11/19 00:10:45;;;;;;;52.45;32.15;;;;;;;0.14;100.00;97408.38;1027891;28;20124;-50
2021/11/19 00:11:18;;;;;;;46.92;30.38;;;;;;;0.15;100.00;97407.47;1027983;28;20802;-50
2021/11/19 00:11:49;;;;;;;44.05;29.73;;;;;;;0.14;100.00;97411.78;1027854;28;20030;-49
2021/11/19 00:12:19;;;;;;;45.28;30.65;;;;;;;0.15;100.00;97410.94;1035973;28;20265;-50
2021/11/19 00:12:50;;;;;;;44.03;28.98;;;;;;;0.16;100.00;97409.19;1032219;28;20029;-51
2021/11/19 00:13:21;;;;;;;43.25;29.33;;;;;;;0.15;100.00;97416.09;1027771;28;20030;-49
2021/11/19 00:13:51;;;;;;;46.95;31.08;;;;;;;0.16;100.00;97411.78;1031783;28;20053;-49
2021/11/19 00:14:23;;;;;;;43.15;29.45;;;;;;;0.16;100.00;97419.50;1036008;28;20396;-53
2021/11/19 00:14:53;;;;;;;51.33;31.63;;;;;;;0.10;100.00;97420.41;1036073;28;20052;-50
2021/11/19 00:15:24;;;;;;;42.55;29.00;;;;;;;0.13;100.00;97412.66;1028186;28;20700;-49
2021/11/19 00:15:56;;;;;;;42.28;28.65;;;;;;;0.14;100.00;97416.94;1024061;28;20023;-49
2021/11/19 00:16:27;;;;;;;42.08;29.13;;;;;;;0.14;100.00;97422.09;1027920;28;20064;-50
2021/11/19 00:17:05;;;;;;;44.65;30.33;;;;;;;0.14;100.00;97419.50;1031925;28;20699;-51
2021/11/19 00:17:35;;;;;;;47.72;31.50;;;;;;;0.14;100.00;97419.50;1028154;28;20729;-50
2021/11/19 00:18:06;;;;;;;46.88;30.73;;;;;;;0.13;100.00;97420.41;1032875;28;20726;-50
2021/11/19 00:18:37;;;;;;;43.60;29.55;;;;;;;0.10;100.00;97417.81;1036966;28;20448;-49
2021/11/19 00:19:07;;;;;;;50.08;32.30;;;;;;;0.08;100.00;97416.13;1040125;28;20018;-50
2021/11/19 00:19:42;;;;;;;51.13;31.40;;;;;;;0.10;100.00;97419.56;1039993;28;20475;-49
2021/11/19 00:20:16;;;;;;;44.33;28.90;;;;;;;0.08;100.00;97416.13;1039959;28;20459;-50
2021/11/19 00:20:47;;;;;;;44.38;30.08;;;;;;;0.05;100.00;97416.13;1031933;28;20253;-50
2021/11/19 00:21:17;;;;;;;43.42;29.50;;;;;;;0.05;100.00;97419.56;1031977;28;20732;-51
2021/11/19 00:21:48;;;;;;;42.20;29.00;;;;;;;0.04;100.00;97417.88;1028498;28;20019;-50
2021/11/19 00:22:19;;;;;;;44.67;29.55;;;;;;;0.03;100.00;97423.88;1032088;28;20512;-52
2021/11/19 00:22:50;;;;;;;44.75;30.30;;;;;;;0.01;100.00;97423.03;1031748;28;20019;-49
2021/11/19 00:23:21;;;;;;;45.03;30.27;;;;;;;-0.15;100.00;97398.19;1027739;28;20030;-50
2021/11/19 00:23:51;;;;;;;44.72;30.15;;;;;;;-0.05;100.00;97426.47;1023985;29;20358;-49
2021/11/19 00:24:22;;;;;;;46.33;29.40;;;;;;;-0.06;100.00;97419.59;1028267;28;20038;-50
2021/11/19 00:24:52;;;;;;;50.28;31.75;;;;;;;-0.06;100.00;97418.75;1035937;28;20102;-53
2021/11/19 00:25:23;;;;;;;49.80;32.20;;;;;;;-0.08;100.00;97418.75;1040196;28;20014;-50
2021/11/19 00:25:54;;;;;;;44.40;29.23;;;;;;;-0.08;100.00;97420.50;1035913;28;20152;-50
2021/11/19 00:26:24;;;;;;;49.53;30.85;;;;;;;-0.09;100.00;97421.38;1027823;28;20023;-50
2021/11/19 00:26:55;;;;;;;42.25;29.13;;;;;;;-0.11;100.00;97420.50;1027966;28;20022;-51
2021/11/19 00:27:26;;;;;;;48.15;31.90;;;;;;;-0.10;100.00;97424.78;1028262;28;20125;-49
2021/11/19 00:27:56;;;;;;;46.38;30.08;;;;;;;-0.10;100.00;97419.63;1032128;28;20041;-50
2021/11/19 00:28:27;;;;;;;49.00;31.08;;;;;;;-0.10;100.00;97423.06;1027854;28;20469;-52
2021/11/19 00:28:58;;;;;;;43.60;30.60;;;;;;;-0.07;100.00;97420.50;1032005;28;20046;-50
2021/11/19 00:29:29;;;;;;;50.13;31.65;;;;;;;-0.08;100.00;97413.59;1031974;28;20552;-51
2021/11/19 00:30:00;;;;;;;44.08;30.45;;;;;;;-0.08;100.00;97416.19;1032274;28;20250;-50
2021/11/19 00:30:31;;;;;;;54.45;33.72;;;;;;;-0.07;100.00;97420.50;1031836;28;20093;-49
2021/11/19 00:31:03;;;;;;;48.33;31.13;;;;;;;-0.05;100.00;97423.91;1024438;28;20044;-50
2021/11/19 00:31:34;;;;;;;53.90;33.08;;;;;;;-0.05;100.00;97416.19;1027898;28;20258;-49
2021/11/19 00:32:05;;;;;;;57.60;33.33;;;;;;;-0.01;100.00;97419.59;1031815;28;20272;-49
2021/11/19 00:32:36;;;;;;;56.33;33.15;;;;;;;-0.01;100.00;97419.59;1031897;28;20293;-51
2021/11/19 00:33:07;;;;;;;51.05;31.63;;;;;;;-0.03;100.00;97423.91;1032132;28;20396;-52
2021/11/19 00:33:38;;;;;;;53.58;32.78;;;;;;;-0.05;100.00;97421.34;1032544;28;20356;-49
2021/11/19 00:34:09;;;;;;;58.58;34.13;;;;;;;-0.05;100.00;97420.47;1040221;28;20021;-50
2021/11/19 00:34:40;;;;;;;60.78;35.75;;;;;;;-0.06;100.00;97429.06;1036038;28;20032;-50
2021/11/19 00:35:11;;;;;;;51.42;33.78;;;;;;;-0.05;100.00;97425.63;1040276;28;20009;-51
2021/11/19 00:35:42;;;;;;;55.08;32.75;;;;;;;-0.08;100.00;97425.63;1040183;28;20252;-51
2021/11/19 00:36:15;;;;;;;45.00;30.70;;;;;;;-0.10;100.00;97425.63;1036444;28;20249;-52
2021/11/19 00:36:46;;;;;;;56.17;33.38;;;;;;;-0.11;100.00;97421.38;1035896;28;20360;-50
2021/11/19 00:37:17;;;;;;;56.50;32.78;;;;;;;-0.13;100.00;97422.22;1032423;28;20301;-50
2021/11/19 00:37:49;;;;;;;54.40;33.40;;;;;;;-0.10;100.00;97424.78;1028412;28;20015;-50
2021/11/19 00:38:20;;;;;;;57.78;35.13;;;;;;;-0.13;100.00;97423.09;1028213;28;20767;-50
2021/11/19 00:38:54;;;;;;;54.25;32.15;;;;;;;-0.13;100.00;97427.38;1031822;28;20384;-51
2021/11/19 00:39:25;;;;;;;47.50;30.90;;;;;;;-0.15;100.00;97423.94;1031785;28;20265;-50
2021/11/19 00:39:56;;;;;;;55.33;33.50;;;;;;;-0.14;100.00;97423.09;1031845;28;20700;-49
2021/11/19 00:40:32;;;;;;;52.80;32.33;;;;;;;-0.17;100.00;97425.69;1031988;28;20594;-50
2021/11/19 00:41:04;;;;;;;53.40;32.17;;;;;;;-0.17;100.00;97428.25;1029791;28;20026;-50
2021/11/19 00:41:35;;;;;;;61.20;35.00;;;;;;;-0.16;100.00;97420.53;1029020;28;20723;-50
2021/11/19 00:42:07;;;;;;;63.15;36.53;;;;;;;-0.15;100.00;97418.78;1028802;28;20311;-50
2021/11/19 00:42:37;;;;;;;60.17;33.97;;;;;;;-0.17;100.00;97415.38;1027890;28;20031;-52
2021/11/19 00:43:08;;;;;;;46.28;31.35;;;;;;;-0.18;100.00;97419.69;1031736;28;20364;-50
2021/11/19 00:43:39;;;;;;;50.85;31.83;;;;;;;-0.17;100.00;97420.53;1031742;28;20025;-50
2021/11/19 00:44:11;;;;;;;56.95;32.25;;;;;;;-0.18;100.00;97418.81;1031821;28;20018;-51
2021/11/19 00:44:41;;;;;;;59.92;34.33;;;;;;;-0.17;100.00;97425.69;1032030;28;20018;-52
2021/11/19 00:45:13;;;;;;;62.60;35.67;;;;;;;-0.20;100.00;97421.41;1032416;28;20264;-50
2021/11/19 00:45:43;;;;;;;63.85;35.40;;;;;;;-0.22;100.00;97423.13;1036406;28;20014;-50
2021/11/19 00:46:14;;;;;;;70.28;37.33;;;;;;;-0.22;100.00;97425.72;1031878;28;20258;-50
2021/11/19 00:46:45;;;;;;;61.25;32.30;;;;;;;-0.27;100.00;97420.56;1031943;28;20011;-50
2021/11/19 00:47:16;;;;;;;76.00;38.67;;;;;;;-0.23;100.00;97419.69;1028061;28;20388;-50
2021/11/19 00:47:47;;;;;;;71.55;37.72;;;;;;;-0.27;100.00;97420.56;1032624;28;20250;-50
2021/11/19 00:48:18;;;;;;;62.65;35.03;;;;;;;-0.22;100.00;97421.41;1039576;28;20694;-51
2021/11/19 00:48:49;;;;;;;64.05;35.60;;;;;;;-0.20;100.00;97426.56;1032050;28;20031;-49
2021/11/19 00:49:24;;;;;;;66.85;36.40;;;;;;;-0.16;100.00;97429.97;1031738;28;20258;-53
2021/11/19 00:49:55;;;;;;;57.63;34.08;;;;;;;-0.16;100.00;97423.09;1027860;28;20019;-50
2021/11/19 00:50:31;;;;;;;58.03;33.78;;;;;;;-0.15;100.00;97422.25;1029398;28;20258;-51
2021/11/19 00:51:07;;;;;;;53.65;33.22;;;;;;;-0.17;100.00;97429.09;1031750;28;20315;-50
2021/11/19 00:51:40;;;;;;;52.63;32.13;;;;;;;-0.23;100.00;97437.72;1031831;28;20325;-52
2021/11/19 00:52:12;;;;;;;54.80;33.17;;;;;;;-0.24;100.00;97435.16;1032009;28;20268;-50
2021/11/19 00:52:43;;;;;;;54.03;32.22;;;;;;;-0.27;100.00;97438.59;1038594;28;20299;-50
2021/11/19 00:53:13;;;;;;;51.25;32.40;;;;;;;-0.31;100.00;97431.75;1035660;28;20261;-50
2021/11/19 00:53:47;;;;;;;50.20;31.33;;;;;;;-0.32;100.00;97442.91;1027608;28;20019;-51
2021/11/19 00:54:18;;;;;;;47.90;31.23;;;;;;;-0.31;100.00;97438.63;1027803;28;20026;-52
2021/11/19 00:54:48;;;;;;;44.03;29.80;;;;;;;-0.31;100.00;97439.47;1028334;28;20270;-51
2021/11/19 00:55:19;;;;;;;45.13;29.92;;;;;;;-0.29;100.00;97442.03;1028930;28;20019;-51
2021/11/19 00:55:49;;;;;;;50.38;32.50;;;;;;;-0.29;100.00;97432.59;1031698;28;20018;-50
2021/11/19 00:56:22;;;;;;;44.22;29.10;;;;;;;-0.27;100.00;97438.59;1028000;28;20058;-51
2021/11/19 00:56:57;;;;;;;44.08;28.20;;;;;;;-0.25;100.00;97442.00;1027864;28;20030;-50
2021/11/19 00:57:28;;;;;;;41.53;28.80;;;;;;;-0.24;100.00;97442.88;1027715;28;20912;-52
2021/11/19 00:57:59;;;;;;;44.90;30.58;;;;;;;-0.22;100.00;97444.59;1031742;28;20264;-50
2021/11/19 00:58:29;;;;;;;41.85;29.10;;;;;;;-0.22;100.00;97443.75;1032453;28;20030;-49
2021/11/19 00:59:00;;;;;;;42.15;28.75;;;;;;;-0.20;100.00;97447.16;1031859;28;20118;-50
2021/11/19 00:59:31;;;;;;;44.95;30.73;;;;;;;-0.20;100.00;97442.84;1027894;28;20078;-51
2021/11/19 01:00:06;;;;;;;43.75;29.08;;;;;;;-0.18;100.00;97445.44;1023947;28;20493;-52
2021/11/19 01:00:41;;;;;;;41.72;28.48;;;;;;;-0.17;100.00;97443.72;1024762;28;20295;-50
2021/11/19 01:01:16;;;;;;;43.85;29.00;;;;;;;-0.16;100.00;97445.44;1025229;28;20266;-50
2021/11/19 01:01:51;;;;;;;43.47;29.92;;;;;;;-0.17;100.00;97446.28;1029474;28;20635;-51
2021/11/19 01:02:23;;;;;;;42.08;28.58;;;;;;;-0.17;100.00;97438.56;1023788;29;20302;-50
2021/11/19 01:02:54;;;;;;;42.58;29.05;;;;;;;-0.15;100.00;97447.13;1027704;28;20293;-50
2021/11/19 01:03:25;;;;;;;43.00;30.10;;;;;;;-0.12;100.00;97447.13;1028608;28;20826;-51
2021/11/19 01:03:56;;;;;;;59.92;34.03;;;;;;;-0.18;100.00;97439.44;1028103;28;20026;-50
2021/11/19 01:04:27;;;;;;;61.38;32.28;;;;;;;-0.27;100.00;97448.88;1023859;29;20262;-51
2021/11/19 01:04:58;;;;;;;44.30;29.67;;;;;;;-0.26;100.00;97437.75;1024155;28;20661;-51
2021/11/19 01:05:28;;;;;;;43.90;29.95;;;;;;;-0.23;100.00;97440.28;1027947;28;20158;-52
2021/11/19 01:06:00;;;;;;;51.70;30.30;;;;;;;-0.28;100.00;97439.47;1032040;28;20101;-50
2021/11/19 01:06:30;;;;;;;47.25;30.95;;;;;;;-0.31;100.00;97442.03;1035928;28;20006;-50
2021/11/19 01:07:01;;;;;;;61.97;32.50;;;;;;;-0.34;100.00;97442.03;1036189;28;20255;-51
2021/11/19 01:07:32;;;;;;;48.10;31.17;;;;;;;-0.33;100.00;97443.75;1035905;28;20029;-51
2021/11/19 01:08:02;;;;;;;52.97;31.77;;;;;;;-0.33;100.00;97445.50;1035776;28;20428;-49
2021/11/19 01:08:33;;;;;;;55.28;32.33;;;;;;;-0.34;100.00;97444.63;1031814;28;20053;-50
2021/11/19 01:09:05;;;;;;;57.30;32.20;;;;;;;-0.32;100.00;97445.50;1027587;28;20023;-50
2021/11/19 01:09:39;;;;;;;49.03;31.27;;;;;;;-0.30;100.00;97450.63;1023824;29;20069;-50
2021/11/19 01:10:15;;;;;;;54.42;33.78;;;;;;;-0.26;100.00;97442.88;1027645;28;20290;-50
2021/11/19 01:10:46;;;;;;;57.92;34.65;;;;;;;-0.27;100.00;97448.03;1031750;28;20303;-50
2021/11/19 01:11:19;;;;;;;63.50;36.10;;;;;;;-0.28;100.00;97444.63;1031868;28;20250;-51
2021/11/19 01:11:50;;;;;;;77.88;39.00;;;;;;;-0.25;100.00;97447.16;1029058;28;20027;-50
2021/11/19 01:12:23;;;;;;;71.93;36.95;;;;;;;-0.25;100.00;97442.00;1028121;28;20366;-49
2021/11/19 01:12:53;;;;;;;79.97;36.83;;;;;;;-0.25;100.00;97446.31;1024295;28;20397;-49
2021/11/19 01:13:24;;;;;;;71.20;36.50;;;;;;;-0.26;100.00;97442.88;1023657;28;20271;-49
2021/11/19 01:13:56;;;;;;;63.95;36.40;;;;;;;-0.29;100.00;97439.47;1020382;29;20023;-52
2021/11/19 01:14:32;;;;;;;65.63;36.95;;;;;;;-0.30;100.00;97438.63;1020473;28;20106;-51
2021/11/19 01:15:09;;;;;;;60.38;35.42;;;;;;;-0.27;100.00;97436.00;1021784;28;20278;-49
2021/11/19 01:15:45;;;;;;;56.70;33.55;;;;;;;-0.23;100.00;97442.00;1025607;28;20281;-50
2021/11/19 01:16:20;;;;;;;60.28;34.63;;;;;;;-0.26;100.00;97437.75;1025937;28;20311;-49
2021/11/19 01:16:55;;;;;;;53.28;31.80;;;;;;;-0.27;100.00;97430.84;1032370;28;20731;-52
2021/11/19 01:17:30;;;;;;;45.67;30.80;;;;;;;-0.27;100.00;97437.75;1033659;28;20767;-50
2021/11/19 01:18:08;;;;;;;52.85;32.17;;;;;;;-0.26;100.00;97435.16;1031830;28;20268;-52
2021/11/19 01:18:50;;;;;;;47.50;32.13;;;;;;;-0.28;100.00;97430.84;1027654;28;20361;-49
2021/11/19 01:19:29;;;;;;;51.65;32.50;;;;;;;-0.24;100.00;97430.88;1034962;28;20261;-49
2021/11/19 01:20:08;;;;;;;59.08;33.55;;;;;;;-0.27;100.00;97428.28;1035748;28;20261;-50
2021/11/19 01:20:45;;;;;;;53.08;31.95;;;;;;;-0.27;100.00;97423.13;1035685;28;20323;-49
2021/11/19 01:21:21;;;;;;;47.65;29.75;;;;;;;-0.24;100.00;97428.28;1027767;28;20270;-50
2021/11/19 01:21:59;;;;;;;48.50;31.25;;;;;;;-0.20;100.00;97422.25;1033506;28;20772;-49
2021/11/19 01:22:35;;;;;;;51.28;33.95;;;;;;;-0.19;100.00;97423.09;1031519;28;20299;-50
2021/11/19 01:23:10;;;;;;;46.50;31.40;;;;;;;-0.18;100.00;97421.41;1031532;28;20711;-52
2021/11/19 01:23:41;;;;;;;53.75;32.67;;;;;;;-0.19;100.00;97425.69;1035604;28;20347;-49
2021/11/19 01:24:11;;;;;;;48.88;31.95;;;;;;;-0.20;100.00;97421.41;1031910;28;20269;-52
2021/11/19 01:24:42;;;;;;;46.28;32.42;;;;;;;-0.20;100.00;97431.72;1023612;29;20023;-49
2021/11/19 01:25:16;;;;;;;47.45;31.67;;;;;;;-0.18;100.00;97426.56;1020074;29;20024;-50
2021/11/19 01:25:50;;;;;;;54.97;32.28;;;;;;;-0.20;100.00;97429.13;1025109;28;20050;-50
2021/11/19 01:26:23;;;;;;;45.30;30.60;;;;;;;-0.24;100.00;97425.72;1034080;28;20266;-49
2021/11/19 01:26:54;;;;;;;48.33;31.92;;;;;;;-0.23;100.00;97429.13;1039777;28;20294;-51
2021/11/19 01:27:25;;;;;;;48.08;30.55;;;;;;;-0.18;100.00;97431.72;1039907;28;20330;-50
2021/11/19 01:27:55;;;;;;;51.63;34.30;;;;;;;-0.20;100.00;97431.72;1031879;28;20018;-52
2021/11/19 01:28:26;;;;;;;52.20;32.35;;;;;;;-0.25;100.00;97429.13;1027717;28;20609;-49
2021/11/19 01:28:58;;;;;;;54.58;32.10;;;;;;;-0.26;100.00;97430.00;1027591;28;20547;-51
2021/11/19 01:29:29;;;;;;;51.83;33.25;;;;;;;-0.25;100.00;97423.97;1028434;28;20066;-50
2021/11/19 01:29:59;;;;;;;49.28;32.10;;;;;;;-0.23;100.00;97429.13;1036065;28;20332;-50
2021/11/19 01:30:35;;;;;;;45.10;30.75;;;;;;;-0.24;100.00;97427.44;1032176;28;20014;-49
2021/11/19 01:31:10;;;;;;;51.03;32.65;;;;;;;-0.21;100.00;97425.72;1031918;28;20030;-50
2021/11/19 01:31:43;;;;;;;57.58;33.72;;;;;;;-0.25;100.00;97417.97;1027618;28;20270;-49
2021/11/19 01:32:17;;;;;;;57.83;33.53;;;;;;;-0.26;100.00;97419.72;1035758;28;20280;-51
2021/11/19 01:32:48;;;;;;;53.90;32.75;;;;;;;-0.24;100.00;97420.56;1035697;28;20801;-49
2021/11/19 01:33:18;;;;;;;57.60;32.42;;;;;;;-0.23;100.00;97413.69;1032468;28;20270;-48
2021/11/19 01:33:49;;;;;;;51.08;32.30;;;;;;;-0.22;100.00;97423.13;1035810;28;20279;-49
2021/11/19 01:34:19;;;;;;;53.50;34.35;;;;;;;-0.23;100.00;97414.53;1027688;28;20061;-50
2021/11/19 01:34:50;;;;;;;55.30;32.97;;;;;;;-0.23;100.00;97413.69;1023903;28;20425;-51
2021/11/19 01:35:21;;;;;;;46.03;30.73;;;;;;;-0.21;100.00;97410.25;1023715;28;20050;-49
2021/11/19 01:35:51;;;;;;;45.75;30.85;;;;;;;-0.21;100.00;97405.09;1024333;28;20086;-49
2021/11/19 01:36:22;;;;;;;45.80;31.45;;;;;;;-0.20;100.00;97411.09;1024092;28;20038;-49
2021/11/19 01:36:53;;;;;;;50.63;32.88;;;;;;;-0.21;100.00;97412.84;1024123;28;20494;-50
2021/11/19 01:37:24;;;;;;;62.17;33.92;;;;;;;-0.20;100.00;97411.94;1027566;28;20023;-53
2021/11/19 01:37:55;;;;;;;54.15;32.83;;;;;;;-0.21;100.00;97415.41;1028222;28;20303;-50
2021/11/19 01:38:26;;;;;;;53.03;32.53;;;;;;;-0.18;100.00;97411.09;1035683;28;20121;-49
2021/11/19 01:38:57;;;;;;;48.22;31.40;;;;;;;-0.19;100.00;97415.38;1035656;28;20018;-50
2021/11/19 01:39:28;;;;;;;53.97;32.15;;;;;;;-0.21;100.00;97409.38;1027479;28;20262;-49
2021/11/19 01:39:58;;;;;;;47.05;29.77;;;;;;;-0.22;100.00;97412.84;1019703;29;20529;-51
2021/11/19 01:40:31;;;;;;;48.20;30.80;;;;;;;-0.20;100.00;97411.94;1023734;29;20338;-50
2021/11/19 01:41:06;;;;;;;47.03;30.83;;;;;;;-0.21;100.00;97409.38;1027988;28;20105;-48
2021/11/19 01:41:40;;;;;;;46.75;30.35;;;;;;;-0.21;100.00;97405.09;1033688;28;20269;-50
2021/11/19 01:42:19;;;;;;;47.30;30.65;;;;;;;-0.17;100.00;97410.22;1037135;28;20268;-50
2021/11/19 01:42:53;;;;;;;55.00;32.22;;;;;;;-0.16;100.00;97399.06;1037351;28;20248;-52
2021/11/19 01:43:24;;;;;;;53.53;33.30;;;;;;;-0.20;100.00;97406.78;1023406;29;20342;-49
2021/11/19 01:43:55;;;;;;;50.70;31.23;;;;;;;-0.22;100.00;97405.94;1029281;28;20258;-52
2021/11/19 01:44:30;;;;;;;46.20;30.67;;;;;;;-0.17;100.00;97408.50;1031834;28;20018;-50
2021/11/19 01:45:07;;;;;;;46.00;31.30;;;;;;;-0.17;100.00;97411.06;1025271;28;20622;-50
2021/11/19 01:45:41;;;;;;;50.20;31.75;;;;;;;-0.13;100.00;97410.22;1023525;29;20262;-48
2021/11/19 01:46:17;;;;;;;52.67;32.75;;;;;;;-0.12;100.00;97414.50;1025799;28;20685;-50
2021/11/19 01:46:50;;;;;;;50.25;30.35;;;;;;;-0.13;100.00;97412.78;1032419;28;20285;-50
2021/11/19 01:47:20;;;;;;;50.30;32.08;;;;;;;-0.12;100.00;97404.19;1029274;28;20289;-52
2021/11/19 01:47:53;;;;;;;51.35;32.58;;;;;;;-0.10;100.00;97415.34;1027444;28;20341;-50
2021/11/19 01:48:27;;;;;;;53.22;33.08;;;;;;;-0.12;100.00;97416.22;1027603;28;20516;-50
2021/11/19 01:48:58;;;;;;;53.33;33.15;;;;;;;-0.12;100.00;97416.22;1027530;28;20277;-49
2021/11/19 01:49:29;;;;;;;58.10;34.45;;;;;;;-0.11;100.00;97415.34;1023614;29;20779;-49
2021/11/19 01:50:00;;;;;;;52.90;33.20;;;;;;;-0.13;100.00;97414.50;1024775;28;20015;-50
2021/11/19 01:50:47;;;;;;;58.60;33.47;;;;;;;-0.14;100.00;97418.78;1028224;28;20342;-50
2021/11/19 01:51:40;;;;;;;56.65;34.35;;;;;;;-0.18;100.00;97411.94;1030164;28;20019;-50
2021/11/19 01:52:18;;;;;;;52.42;32.58;;;;;;;-0.15;100.00;97416.22;1028858;28;20810;-50
2021/11/19 01:52:57;;;;;;;52.15;31.92;;;;;;;-0.17;100.00;97416.22;1031572;28;20307;-52
2021/11/19 01:53:31;;;;;;;60.28;33.92;;;;;;;-0.17;100.00;97415.38;1039856;28;20244;-49
2021/11/19 01:54:06;;;;;;;47.95;31.15;;;;;;;-0.15;100.00;97416.22;1038323;28;20256;-48
2021/11/19 01:54:44;;;;;;;52.42;31.48;;;;;;;-0.18;100.00;97416.25;1035645;28;20300;-48
2021/11/19 01:55:20;;;;;;;51.83;31.80;;;;;;;-0.22;100.00;97416.25;1031598;28;20258;-50
2021/11/19 01:55:55;;;;;;;46.67;30.08;;;;;;;-0.24;100.00;97415.41;1027370;28;20274;-52
2021/11/19 01:56:34;;;;;;;51.50;31.85;;;;;;;-0.27;100.00;97417.97;1023609;29;20263;-49
2021/11/19 01:57:13;;;;;;;50.15;31.55;;;;;;;-0.28;100.00;97412.84;1019627;29;20255;-52
2021/11/19 01:57:48;;;;;;;58.03;33.70;;;;;;;-0.28;100.00;97411.13;1019873;29;20629;-50
2021/11/19 01:58:29;;;;;;;47.05;30.70;;;;;;;-0.29;100.00;97413.72;1031311;28;20262;-50
2021/11/19 01:59:12;;;;;;;54.40;32.33;;;;;;;-0.28;100.00;97420.56;1031595;28;20336;-49
2021/11/19 01:59:46;;;;;;;57.22;34.22;;;;;;;-0.31;100.00;97420.59;1027436;28;20266;-48
2021/11/19 02:00:38;;;;;;;60.90;34.58;;;;;;;-0.35;100.00;97427.47;1031362;28;20304;-51
2021/11/19 02:01:14;;;;;;;56.95;33.38;;;;;;;-0.35;100.00;97427.47;1031554;28;20269;-49
2021/11/19 02:01:57;;;;;;;52.70;31.27;;;;;;;-0.39;100.00;97418.03;1027601;28;20727;-49
2021/11/19 02:02:31;;;;;;;67.32;35.42;;;;;;;-0.40;100.00;97421.47;1027274;28;20270;-49
2021/11/19 02:03:02;;;;;;;56.95;33.33;;;;;;;-0.42;100.00;97425.75;1029304;28;20345;-50
2021/11/19 02:03:36;;;;;;;57.08;33.42;;;;;;;-0.47;100.00;97430.94;1029861;28;20269;-50
2021/11/19 02:04:17;;;;;;;49.47;29.35;;;;;;;-0.46;100.00;97424.91;1020702;29;20074;-50
2021/11/19 02:04:50;;;;;;;;;;;;;;;-0.46;100.00;97429.22;1026075;28;20495;-51
2021/11/19 02:05:30;;;;;;;52.05;30.48;;;;;;;-0.45;100.00;97430.91;1027935;28;20380;-49
2021/11/19 02:06:08;;;;;;;55.05;32.78;;;;;;;-0.45;100.00;97430.91;1029691;28;20254;-49
2021/11/19 02:06:45;;;;;;;52.65;32.45;;;;;;;-0.47;100.00;97430.06;1027516;28;20310;-50
2021/11/19 02:07:20;;;;;;;48.97;31.67;;;;;;;-0.50;100.00;97425.78;1023628;29;20259;-51
2021/11/19 02:07:55;;;;;;;60.10;34.92;;;;;;;-0.46;100.00;97434.38;1023520;29;20674;-49
2021/11/19 02:08:29;;;;;;;52.97;30.77;;;;;;;-0.49;100.00;97435.25;1023395;29;20258;-50
2021/11/19 02:08:59;;;;;;;68.72;35.42;;;;;;;-0.52;100.00;97429.25;1023460;29;20663;-51
2021/11/19 02:09:47;;;;;;;78.38;38.70;;;;;;;-0.51;100.00;97436.09;1027523;28;20353;-50
2021/11/19 02:10:48;;;;;;;56.17;33.50;;;;;;;-0.49;100.00;97436.94;1027517;28;20384;-49
2021/11/19 02:11:36;;;;;;;52.15;31.67;;;;;;;-0.55;100.00;97429.25;1031688;28;20818;-50
2021/11/19 02:12:16;;;;;;;67.38;34.83;;;;;;;-0.56;100.00;97442.97;1029884;28;20417;-50
2021/11/19 02:13:07;;;;;;;;;;;;;;;-0.54;100.00;97446.41;1031856;28;20262;-50
2021/11/19 02:13:58;;;;;;;64.05;36.00;;;;;;;-0.54;100.00;97441.25;1035693;28;19996;-52
2021/11/19 02:14:32;;;;;;;59.75;34.72;;;;;;;-0.57;100.00;97441.25;1039869;28;20033;-50
2021/11/19 02:15:13;;;;;;;71.15;37.83;;;;;;;-0.66;100.00;97437.84;1043799;28;20290;-50
2021/11/19 02:15:49;;;;;;;76.45;37.72;;;;;;;-0.72;100.00;97443.00;1039726;28;20296;-49
2021/11/19 02:16:22;;;;;;;62.05;34.60;;;;;;;-0.73;100.00;97441.28;1027539;28;20262;-49
2021/11/19 02:16:56;;;;;;;74.75;37.22;;;;;;;-0.74;100.00;97437.00;1023407;28;20328;-50
2021/11/19 02:17:27;;;;;;;52.10;32.47;;;;;;;-0.72;100.00;97437.84;1023659;28;20342;-50
2021/11/19 02:18:03;;;;;;;60.92;35.55;;;;;;;-0.72;100.00;97442.16;1027465;28;20258;-51
2021/11/19 02:18:40;;;;;;;74.10;39.13;;;;;;;-0.74;100.00;97438.72;1027450;28;20544;-52
2021/11/19 02:19:13;;;;;;;57.78;33.55;;;;;;;-0.72;100.00;97444.72;1027453;28;20265;-49
2021/11/19 02:19:48;;;;;;;81.60;40.10;;;;;;;-0.75;100.00;97444.72;1027541;28;20300;-51
2021/11/19 02:20:23;;;;;;;63.28;34.95;;;;;;;-0.80;100.00;97440.44;1023432;29;20366;-49
2021/11/19 02:20:58;;;;;;;69.97;35.92;;;;;;;-0.81;100.00;97438.75;1031363;28;20288;-50
2021/11/19 02:21:33;;;;;;;63.92;34.80;;;;;;;-0.77;100.00;97439.56;1035490;28;20300;-50
2021/11/19 02:22:16;;;;;;;72.45;37.83;;;;;;;-0.77;100.00;97442.13;1027594;28;20262;-51
2021/11/19 02:22:51;;;;;;;71.75;36.60;;;;;;;-0.76;100.00;97445.59;1027275;28;20429;-51
2021/11/19 02:23:25;;;;;;;81.65;38.75;;;;;;;-0.78;100.00;97448.16;1035497;28;20686;-50
2021/11/19 02:24:00;;;;;;;69.95;36.70;;;;;;;-0.77;100.00;97449.84;1039642;28;20848;-52
2021/11/19 02:24:51;;;;;;;72.45;36.40;;;;;;;-0.81;100.00;97449.03;1027563;28;20420;-49
2021/11/19 02:25:26;;;;;;;85.00;38.03;;;;;;;-0.85;100.00;97446.44;1023544;29;20645;-49
2021/11/19 02:25:59;;;;;;;55.65;33.53;;;;;;;-0.85;100.00;97443.88;1023534;29;20027;-51
2021/11/19 02:26:35;;;;;;;55.67;33.45;;;;;;;-0.84;100.00;97449.03;1027607;28;20266;-53
2021/11/19 02:27:09;;;;;;;66.60;35.92;;;;;;;-0.84;100.00;97451.59;1027395;28;20321;-49
2021/11/19 02:27:43;;;;;;;64.57;35.88;;;;;;;-0.81;100.00;97453.28;1027414;28;20270;-50
2021/11/19 02:28:18;;;;;;;58.70;34.83;;;;;;;-0.82;100.00;97451.59;1027574;28;20258;-50
2021/11/19 02:28:51;;;;;;;60.08;35.70;;;;;;;-0.84;100.00;97453.31;1023501;29;20267;-51
2021/11/19 02:29:22;;;;;;;76.47;38.45;;;;;;;-0.89;100.00;97455.88;1024895;28;20294;-50
2021/11/19 02:29:57;;;;;;;74.80;37.35;;;;;;;-0.87;100.00;97448.16;1028625;28;20776;-51
2021/11/19 02:30:33;;;;;;;70.15;36.30;;;;;;;-0.89;100.00;97455.03;1027559;28;20038;-49
2021/11/19 02:31:27;;;;;;;61.65;32.55;;;;;;;-0.90;100.00;97458.44;1025081;28;20263;-50
2021/11/19 02:31:57;;;;;;;72.30;37.35;;;;;;;-0.91;100.00;97459.31;1031635;28;20859;-50
2021/11/19 02:32:33;;;;;;;75.70;38.78;;;;;;;-0.91;100.00;97456.75;1031437;28;20293;-48
2021/11/19 02:33:06;;;;;;;63.30;35.20;;;;;;;-0.90;100.00;97456.75;1031141;28;20026;-50